sensor_id;sensor_type;location;lat;lon;timestamp;pressure;altitude;pressure_sealevel;temperature;humidity
61740;BME280;47645;45.288;12.038;2022-11-27T00:00:47;1029.002584787485;;;5.97265625;87.54510340143298
61740;BME280;47645;45.288;12.038;2022-11-27T00:10:47;1028.9613191944634;;;6.094921875;87.84478527122016
61740;BME280;47645;45.288;12.038;2022-11-27T00:20:48;1028.9342643983216;;;5.9115234375;89.0393006121827
61740;BME280;47645;45.288;12.038;2022-11-27T00:30:48;1028.8316893896879;;;5.870703125;86.54691628433761
61740;BME280;47645;45.288;12.038;2022-11-27T00:40:49;1028.7811055120953;;;5.9421875;87.62308792004079
61740;BME280;47645;45.288;12.038;2022-11-27T00:50:49;1028.7633400956531;;;5.8146484375;85.7627804557762
61740;BME280;47645;45.288;12.038;2022-11-27T01:00:54;1028.6788159707967;;;5.8095703125;85.76711658807994
61740;BME280;47645;45.288;12.038;2022-11-27T01:10:51;1028.734035730844;;;5.7841796875;86.33929675264481
61740;BME280;47645;45.288;12.038;2022-11-27T01:20:51;1028.7568221041904;;;6.0439453125;86.27079215790664
61740;BME280;47645;45.288;12.038;2022-11-27T01:30:50;1028.7517592876015;;;5.62109375;86.2147390251626
61740;BME280;47645;45.288;12.038;2022-11-27T01:40:56;1028.797567710914;;;5.54453125;86.58512036489145
61740;BME280;47645;45.288;12.038;2022-11-27T01:50:51;1028.7883118171408;;;5.616015625;87.99661898292399
61740;BME280;47645;45.288;12.038;2022-11-27T02:00:52;1028.6727367855199;;;5.52421875;86.03665404195434
61740;BME280;47645;45.288;12.038;2022-11-27T02:10:54;1028.5770703872279;;;5.4935546875;86.97559456401115
61740;BME280;47645;45.288;12.038;2022-11-27T02:20:56;1028.4808192342728;;;5.33046875;85.89981901769907
61740;BME280;47645;45.288;12.038;2022-11-27T02:30:56;1028.3607854849602;;;5.3611328125;88.65497577898631
61740;BME280;47645;45.288;12.038;2022-11-27T02:40:56;1028.4685633911104;;;5.3916015625;87.94228730776717
61740;BME280;47645;45.288;12.038;2022-11-27T02:50:54;1028.5149630452768;;;5.11640625;89.77053274701073
61740;BME280;47645;45.288;12.038;2022-11-27T03:00:55;1028.512726335721;;;5.1521484375;89.8757021503483
61740;BME280;47645;45.288;12.038;2022-11-27T03:10:57;1028.487008822429;;;4.790234375;88.45573377377266
61740;BME280;47645;45.288;12.038;2022-11-27T03:21:03;1028.4151298745562;;;4.749609375;88.65288935848844
61740;BME280;47645;45.288;12.038;2022-11-27T03:30:55;1028.4851845278517;;;4.7189453125;87.83453691950895
61740;BME280;47645;45.288;12.038;2022-11-27T03:41:04;1028.3947132442474;;;4.780078125;87.61724198874236
61740;BME280;47645;45.288;12.038;2022-11-27T03:51:04;1028.371370507081;;;4.7291015625;87.50869588400751
61740;BME280;47645;45.288;12.038;2022-11-27T04:00:58;1028.3787177836346;;;4.7189453125;87.66159720300251
61740;BME280;47645;45.288;12.038;2022-11-27T04:10:56;1028.3319197785581;;;4.64765625;87.69689827900406
61740;BME280;47645;45.288;12.038;2022-11-27T04:20:57;1028.351058972704;;;4.7341796875;86.77315275357235
61740;BME280;47645;45.288;12.038;2022-11-27T04:30:57;1028.300678395469;;;4.55078125;87.63458522807193
61740;BME280;47645;45.288;12.038;2022-11-27T04:40:57;1028.1998150725906;;;4.45390625;87.85418603343788
61740;BME280;47645;45.288;12.038;2022-11-27T04:50:57;1028.1777307945677;;;4.4640625;87.67350488284056
61740;BME280;47645;45.288;12.038;2022-11-27T05:00:58;1028.2418007792055;;;4.4998046875;87.52062838080458
61740;BME280;47645;45.288;12.038;2022-11-27T05:11:00;1028.2508721692536;;;4.4234375;87.52803944567668
61740;BME280;47645;45.288;12.038;2022-11-27T05:21:01;1028.3949143720965;;;4.428515625;87.11505450071107
61740;BME280;47645;45.288;12.038;2022-11-27T05:30:59;1028.3730289354216;;;4.5609375;86.60572400859392
61740;BME280;47645;45.288;12.038;2022-11-27T05:40:59;1028.3990573353146;;;4.5865234375;86.88110467033331
61740;BME280;47645;45.288;12.038;2022-11-27T05:51:00;1028.3688011218067;;;4.6375;88.4108260563895
61740;BME280;47645;45.288;12.038;2022-11-27T06:01:02;1028.1928583146243;;;4.4234375;88.21371558446923
61740;BME280;47645;45.288;12.038;2022-11-27T06:11:05;1028.3779105495594;;;4.351953125;86.71087193046239
61740;BME280;47645;45.288;12.038;2022-11-27T06:21:05;1028.5291190787475;;;4.224609375;86.28869826457966
61740;BME280;47645;45.288;12.038;2022-11-27T06:31:05;1028.6240583810247;;;4.341796875;88.53734992407409
61740;BME280;47645;45.288;12.038;2022-11-27T06:41:03;1028.693092138813;;;4.2654296875;88.02221921660414
61740;BME280;47645;45.288;12.038;2022-11-27T06:51:04;1028.8380927356625;;;4.1583984375;86.55933699797633
61740;BME280;47645;45.288;12.038;2022-11-27T07:01:05;1028.839242131666;;;4.3775390625;85.35574218427548
61740;BME280;47645;45.288;12.038;2022-11-27T07:11:04;1028.8265371256143;;;4.5203125;84.48137185052428
61740;BME280;47645;45.288;12.038;2022-11-27T07:21:03;1028.8670923525845;;;4.739453125;84.10157293161046
61740;BME280;47645;45.288;12.038;2022-11-27T07:31:04;1028.8518577573545;;;4.6375;84.99213284776464
61740;BME280;47645;45.288;12.038;2022-11-27T07:41:04;1028.8910440606153;;;4.963671875;82.63692656581469
61740;BME280;47645;45.288;12.038;2022-11-27T07:51:05;1028.9665659363222;;;5.31015625;81.39733768676447
61740;BME280;47645;45.288;12.038;2022-11-27T08:01:06;1028.8764626016255;;;5.549609375;80.61552762864159
61740;BME280;47645;45.288;12.038;2022-11-27T08:11:05;1028.8763522174863;;;5.860546875;78.62310271705547
61740;BME280;47645;45.288;12.038;2022-11-27T08:21:05;1028.848699327839;;;6.4517578125;77.26558963045531
61740;BME280;47645;45.288;12.038;2022-11-27T08:31:07;1028.9583142807082;;;6.823828125;75.49349271255723
61740;BME280;47645;45.288;12.038;2022-11-27T08:41:07;1028.8878612277292;;;7.27734375;74.66264609754516
61740;BME280;47645;45.288;12.038;2022-11-27T08:51:09;1028.7389742864416;;;7.715625;72.93329049270245
61740;BME280;47645;45.288;12.038;2022-11-27T09:01:09;1028.7733245439697;;;8.1029296875;70.64740645459355
61740;BME280;47645;45.288;12.038;2022-11-27T09:11:08;1028.781039140647;;;8.7095703125;69.60831878500129
61740;BME280;47645;45.288;12.038;2022-11-27T09:21:09;1028.8264574564223;;;9.1833984375;68.29438080613919
61740;BME280;47645;45.288;12.038;2022-11-27T09:31:09;1028.781900321455;;;9.784765625;66.83563691600273
61740;BME280;47645;45.288;12.038;2022-11-27T09:41:23;1028.781120491697;;;10.2638671875;64.88564554021578
61740;BME280;47645;45.288;12.038;2022-11-27T09:51:18;1028.759261834845;;;10.51875;63.3462361231742
61740;BME280;47645;45.288;12.038;2022-11-27T10:01:15;1028.7193557859093;;;10.6869140625;61.68209389826895
61740;BME280;47645;45.288;12.038;2022-11-27T10:11:17;1028.5996837957432;;;11.0130859375;60.7837830300549
61740;BME280;47645;45.288;12.038;2022-11-27T10:21:14;1028.5600795098585;;;11.5126953125;59.78638153809808
61740;BME280;47645;45.288;12.038;2022-11-27T10:31:15;1028.3111732281636;;;11.884765625;58.52212114352581
61740;BME280;47645;45.288;12.038;2022-11-27T10:41:16;1028.0459873630193;;;12.236328125;58.006047409730456
61740;BME280;47645;45.288;12.038;2022-11-27T10:51:15;1027.8654934109288;;;12.659375;57.37937615716493
61740;BME280;47645;45.288;12.038;2022-11-27T11:01:15;1027.8566835969793;;;12.66953125;54.99878229928275
61740;BME280;47645;45.288;12.038;2022-11-27T11:11:24;1027.7154956980469;;;13.0875;53.22696250038046
61740;BME280;47645;45.288;12.038;2022-11-27T11:21:18;1027.6201798812313;;;13.3677734375;52.155279571693406
61740;BME280;47645;45.288;12.038;2022-11-27T11:31:17;1027.4457696168604;;;13.1130859375;51.241276976329765
61740;BME280;47645;45.288;12.038;2022-11-27T11:41:17;1027.1987085250469;;;13.38828125;52.431651053434756
61740;BME280;47645;45.288;12.038;2022-11-27T11:51:20;1027.0056866130992;;;13.29140625;54.116698374860626
61740;BME280;47645;45.288;12.038;2022-11-27T12:01:30;1027.07314279976;;;13.0416015625;50.29937058651942
61740;BME280;47645;45.288;12.038;2022-11-27T12:11:19;1026.9467695277767;;;12.8734375;51.59998078147311
61740;BME280;47645;45.288;12.038;2022-11-27T12:21:23;1026.8867005393306;;;13.0212890625;52.27956328604697
61740;BME280;47645;45.288;12.038;2022-11-27T12:31:27;1026.6840744072954;;;13.0162109375;52.374880332385665
61740;BME280;47645;45.288;12.038;2022-11-27T12:41:31;1026.565352905578;;;12.7869140625;52.32826004868014
61740;BME280;47645;45.288;12.038;2022-11-27T12:51:22;1026.443711678078;;;12.7869140625;52.075388438269385
61740;BME280;47645;45.288;12.038;2022-11-27T13:01:24;1026.2872524102565;;;12.858203125;52.08885280635075
61740;BME280;47645;45.288;12.038;2022-11-27T13:11:25;1026.164910104016;;;12.771484375;50.635135530725094
61740;BME280;47645;45.288;12.038;2022-11-27T13:21:28;1026.1536170841064;;;12.5982421875;51.838922691394615
61740;BME280;47645;45.288;12.038;2022-11-27T13:31:25;1026.0240697022145;;;12.674609375;50.694028769405804
61740;BME280;47645;45.288;12.038;2022-11-27T13:41:29;1026.0924797686869;;;12.6033203125;50.7486945020199
61740;BME280;47645;45.288;12.038;2022-11-27T13:51:26;1026.1437815447002;;;12.62890625;53.13270553639766
61740;BME280;47645;45.288;12.038;2022-11-27T14:01:24;1026.021428062182;;;12.353515625;53.88115649740241
61740;BME280;47645;45.288;12.038;2022-11-27T14:11:37;1025.9636538625232;;;12.343359375;60.353234174165145
61740;BME280;47645;45.288;12.038;2022-11-27T14:21:34;1025.8434916999715;;;12.129296875;56.358003726437175
61740;BME280;47645;45.288;12.038;2022-11-27T14:31:28;1025.8140552319599;;;12.012109375;55.83240357327039
61740;BME280;47645;45.288;12.038;2022-11-27T14:41:28;1025.7036367803178;;;11.798046875;56.19368467217701
61740;BME280;47645;45.288;12.038;2022-11-27T14:51:29;1025.6462852499972;;;11.7318359375;59.05784118341454
61740;BME280;47645;45.288;12.038;2022-11-27T15:01:31;1025.5737620406553;;;11.4462890625;61.706293571113804
61740;BME280;47645;45.288;12.038;2022-11-27T15:11:29;1025.5067771768631;;;11.140625;71.0789261613734
61740;BME280;47645;45.288;12.038;2022-11-27T15:21:34;1025.5027591943592;;;10.85;74.42238250050725
61740;BME280;47645;45.288;12.038;2022-11-27T15:31:32;1025.5169778755192;;;10.814453125;75.75881339439951
61740;BME280;47645;45.288;12.038;2022-11-27T15:41:31;1025.426301071123;;;10.503515625;76.93707116524139
61740;BME280;47645;45.288;12.038;2022-11-27T15:51:31;1025.354864234975;;;10.1466796875;78.12647429595363
61740;BME280;47645;45.288;12.038;2022-11-27T16:01:32;1025.2650191829298;;;9.8001953125;79.3628396088055
61740;BME280;47645;45.288;12.038;2022-11-27T16:11:33;1025.2425403055186;;;9.4892578125;80.60715047210779
61740;BME280;47645;45.288;12.038;2022-11-27T16:21:34;1025.1558331069357;;;9.1630859375;81.66267837185367
61740;BME280;47645;45.288;12.038;2022-11-27T16:31:33;1025.337311425338;;;8.8318359375;83.2029947233725
61740;BME280;47645;45.288;12.038;2022-11-27T16:41:33;1025.2830372056262;;;8.6126953125;83.68215725420494
61740;BME280;47645;45.288;12.038;2022-11-27T16:51:37;1025.1091475367555;;;8.4546875;84.1496121371425
61740;BME280;47645;45.288;12.038;2022-11-27T17:01:36;1025.0319007371631;;;8.255859375;84.4270618416258
61740;BME280;47645;45.288;12.038;2022-11-27T17:11:38;1024.970748130273;;;8.1234375;84.59954115848191
61740;BME280;47645;45.288;12.038;2022-11-27T17:21:35;1024.8155287447082;;;7.924609375;85.17325600717493
61740;BME280;47645;45.288;12.038;2022-11-27T17:31:36;1024.8390038282303;;;7.787109375;85.34640211275476
61740;BME280;47645;45.288;12.038;2022-11-27T17:41:37;1024.8027297335263;;;7.6748046875;85.59265340308515
61740;BME280;47645;45.288;12.038;2022-11-27T17:51:37;1024.6431130999547;;;7.4607421875;85.81525840225146
61740;BME280;47645;45.288;12.038;2022-11-27T18:01:38;1024.5415211415914;;;7.4302734375;85.78437213851038
61740;BME280;47645;45.288;12.038;2022-11-27T18:11:39;1024.5782506238274;;;7.282421875;86.0256566443154
61740;BME280;47645;45.288;12.038;2022-11-27T18:21:38;1024.5281329063673;;;7.175390625;86.29502255347917
61740;BME280;47645;45.288;12.038;2022-11-27T18:31:39;1024.5638857554354;;;7.0328125;86.47175556480634
61740;BME280;47645;45.288;12.038;2022-11-27T18:41:39;1024.528856257243;;;6.8849609375;86.81186836884316
61740;BME280;47645;45.288;12.038;2022-11-27T18:51:41;1024.3769249107563;;;6.92578125;86.42726689367471
61740;BME280;47645;45.288;12.038;2022-11-27T19:01:40;1024.3633680037244;;;6.6962890625;86.58672141305982
61740;BME280;47645;45.288;12.038;2022-11-27T19:11:41;1024.3551824956528;;;6.5435546875;87.16173564029054
61740;BME280;47645;45.288;12.038;2022-11-27T19:21:45;1024.4583980511352;;;6.6607421875;86.66614362401576
61740;BME280;47645;45.288;12.038;2022-11-27T19:31:43;1024.4393665735072;;;6.5689453125;86.61612868330697
61740;BME280;47645;45.288;12.038;2022-11-27T19:41:44;1024.3817529703044;;;6.4619140625;86.62962887064562
61740;BME280;47645;45.288;12.038;2022-11-27T19:51:45;1024.3385743699257;;;6.42109375;86.3481650074003
61740;BME280;47645;45.288;12.038;2022-11-27T20:01:42;1024.3220590680628;;;6.3548828125;86.42667144146367
61740;BME280;47645;45.288;12.038;2022-11-27T20:11:43;1024.1885927556004;;;6.2478515625;86.40412804891174
61740;BME280;47645;45.288;12.038;2022-11-27T20:21:43;1024.132821473394;;;6.084765625;86.86175820037386
61740;BME280;47645;45.288;12.038;2022-11-27T20:31:44;1024.0841373013398;;;5.5140625;86.76396490170873
61740;BME280;47645;45.288;12.038;2022-11-27T20:41:43;1024.1851007206417;;;5.3763671875;88.08814132121245
61740;BME280;47645;45.288;12.038;2022-11-27T20:51:44;1024.365779288961;;;5.33046875;86.6262484474351
61740;BME280;47645;45.288;12.038;2022-11-27T21:01:45;1024.2531651523343;;;5.3712890625;87.18028243261118
61740;BME280;47645;45.288;12.038;2022-11-27T21:11:46;1024.1498401683268;;;5.432421875;85.19492744141165
61740;BME280;47645;45.288;12.038;2022-11-27T21:21:46;1023.9693125304128;;;5.6771484375;87.61953963677874
61740;BME280;47645;45.288;12.038;2022-11-27T21:31:45;1023.8881669164589;;;5.880859375;86.49820125080944
61740;BME280;47645;45.288;12.038;2022-11-27T21:41:47;1023.6644886311851;;;5.8298828125;86.29090136859412
61740;BME280;47645;45.288;12.038;2022-11-27T21:51:50;1023.5646098630615;;;5.3712890625;85.48969117282914
61740;BME280;47645;45.288;12.038;2022-11-27T22:01:47;1023.4715725498272;;;5.4732421875;86.94042205619112
61740;BME280;47645;45.288;12.038;2022-11-27T22:11:48;1023.4433946913633;;;5.44765625;84.35900248449677
61740;BME280;47645;45.288;12.038;2022-11-27T22:21:48;1023.3413781588235;;;5.1267578125;84.24123383481577
61740;BME280;47645;45.288;12.038;2022-11-27T22:31:52;1023.3761934644264;;;5.1419921875;83.60870852832505
61740;BME280;47645;45.288;12.038;2022-11-27T22:41:49;1023.4480206654375;;;5.1470703125;84.44156275863874
61740;BME280;47645;45.288;12.038;2022-11-27T22:51:51;1023.4744624080392;;;5.412109375;87.00878748724237
61740;BME280;47645;45.288;12.038;2022-11-27T23:01:50;1023.4661383822597;;;5.177734375;84.50945174310559
61740;BME280;47645;45.288;12.038;2022-11-27T23:11:51;1023.3037048663834;;;5.33046875;87.24176960035098
61740;BME280;47645;45.288;12.038;2022-11-27T23:21:53;1023.1061231916251;;;5.5701171875;85.84044767431024
61740;BME280;47645;45.288;12.038;2022-11-27T23:31:53;1022.9696334231858;;;5.7025390625;85.05518594173111
61740;BME280;47645;45.288;12.038;2022-11-27T23:41:51;1022.8896900246041;;;5.508984375;86.00264185776766
61740;BME280;47645;45.288;12.038;2022-11-27T23:51:52;1022.7620089037213;;;5.2337890625;84.69184036422156
